sensor_id;sensor_type;location;lat;lon;timestamp;P1;durP1;ratioP1;P2;durP2;ratioP2
69912;SDS011;57198;52.082;5.108;2023-02-19T00:01:08;19.98;;;6.70;;
69912;SDS011;57198;52.082;5.108;2023-02-19T00:03:36;15.90;;;6.03;;
69912;SDS011;57198;52.082;5.108;2023-02-19T00:06:04;18.55;;;6.40;;
69912;SDS011;57198;52.082;5.108;2023-02-19T00:08:32;10.50;;;5.53;;
69912;SDS011;57198;52.082;5.108;2023-02-19T00:11:03;18.08;;;6.43;;
69912;SDS011;57198;52.082;5.108;2023-02-19T00:13:34;18.70;;;6.63;;
69912;SDS011;57198;52.082;5.108;2023-02-19T00:16:10;19.95;;;6.05;;
69912;SDS011;57198;52.082;5.108;2023-02-19T00:18:38;17.98;;;5.85;;
69912;SDS011;57198;52.082;5.108;2023-02-19T00:21:06;17.92;;;6.13;;
69912;SDS011;57198;52.082;5.108;2023-02-19T00:23:34;17.55;;;5.78;;
69912;SDS011;57198;52.082;5.108;2023-02-19T00:26:02;17.92;;;6.50;;
69912;SDS011;57198;52.082;5.108;2023-02-19T00:28:43;18.38;;;6.22;;
69912;SDS011;57198;52.082;5.108;2023-02-19T00:31:19;13.23;;;6.07;;
69912;SDS011;57198;52.082;5.108;2023-02-19T00:33:47;16.95;;;6.75;;
69912;SDS011;57198;52.082;5.108;2023-02-19T00:36:15;13.48;;;6.13;;
69912;SDS011;57198;52.082;5.108;2023-02-19T00:38:43;16.55;;;6.30;;
69912;SDS011;57198;52.082;5.108;2023-02-19T00:41:11;21.15;;;7.57;;
69912;SDS011;57198;52.082;5.108;2023-02-19T00:43:49;12.57;;;5.43;;
69912;SDS011;57198;52.082;5.108;2023-02-19T00:46:17;23.88;;;7.13;;
69912;SDS011;57198;52.082;5.108;2023-02-19T00:48:45;17.38;;;7.32;;
69912;SDS011;57198;52.082;5.108;2023-02-19T00:51:12;25.33;;;7.07;;
69912;SDS011;57198;52.082;5.108;2023-02-19T00:53:40;21.15;;;7.50;;
69912;SDS011;57198;52.082;5.108;2023-02-19T00:56:08;14.13;;;6.37;;
69912;SDS011;57198;52.082;5.108;2023-02-19T00:58:35;15.63;;;5.57;;
69912;SDS011;57198;52.082;5.108;2023-02-19T01:01:02;15.00;;;5.55;;
69912;SDS011;57198;52.082;5.108;2023-02-19T01:03:35;15.65;;;5.40;;
69912;SDS011;57198;52.082;5.108;2023-02-19T01:06:02;15.98;;;5.35;;
69912;SDS011;57198;52.082;5.108;2023-02-19T01:08:31;9.68;;;4.07;;
69912;SDS011;57198;52.082;5.108;2023-02-19T01:10:59;15.27;;;4.78;;
69912;SDS011;57198;52.082;5.108;2023-02-19T01:13:27;14.30;;;3.75;;
69912;SDS011;57198;52.082;5.108;2023-02-19T01:16:05;13.93;;;4.45;;
69912;SDS011;57198;52.082;5.108;2023-02-19T01:18:33;13.48;;;4.20;;
69912;SDS011;57198;52.082;5.108;2023-02-19T01:21:04;15.97;;;4.13;;
69912;SDS011;57198;52.082;5.108;2023-02-19T01:23:33;15.35;;;4.50;;
69912;SDS011;57198;52.082;5.108;2023-02-19T01:26:02;8.38;;;3.83;;
69912;SDS011;57198;52.082;5.108;2023-02-19T01:28:30;15.32;;;4.38;;
69912;SDS011;57198;52.082;5.108;2023-02-19T01:31:05;10.32;;;3.75;;
69912;SDS011;57198;52.082;5.108;2023-02-19T01:33:33;13.35;;;3.75;;
69912;SDS011;57198;52.082;5.108;2023-02-19T01:36:04;12.05;;;4.50;;
69912;SDS011;57198;52.082;5.108;2023-02-19T01:38:32;12.48;;;4.00;;
69912;SDS011;57198;52.082;5.108;2023-02-19T01:41:00;18.63;;;4.22;;
69912;SDS011;57198;52.082;5.108;2023-02-19T01:43:28;8.95;;;4.07;;
69912;SDS011;57198;52.082;5.108;2023-02-19T01:45:57;13.60;;;4.88;;
69912;SDS011;57198;52.082;5.108;2023-02-19T01:50:53;10.95;;;3.47;;
69912;SDS011;57198;52.082;5.108;2023-02-19T01:53:22;17.55;;;3.95;;
69912;SDS011;57198;52.082;5.108;2023-02-19T01:55:52;14.00;;;4.10;;
69912;SDS011;57198;52.082;5.108;2023-02-19T01:58:20;9.10;;;3.00;;
69912;SDS011;57198;52.082;5.108;2023-02-19T02:00:47;7.68;;;3.55;;
69912;SDS011;57198;52.082;5.108;2023-02-19T02:03:17;12.68;;;3.38;;
69912;SDS011;57198;52.082;5.108;2023-02-19T02:05:48;10.30;;;3.40;;
69912;SDS011;57198;52.082;5.108;2023-02-19T02:08:17;8.98;;;3.42;;
69912;SDS011;57198;52.082;5.108;2023-02-19T02:11:03;7.43;;;3.90;;
69912;SDS011;57198;52.082;5.108;2023-02-19T02:13:32;13.30;;;3.42;;
69912;SDS011;57198;52.082;5.108;2023-02-19T02:16:05;11.43;;;3.45;;
69912;SDS011;57198;52.082;5.108;2023-02-19T02:18:38;11.48;;;3.65;;
69912;SDS011;57198;52.082;5.108;2023-02-19T02:26:44;12.65;;;3.83;;
69912;SDS011;57198;52.082;5.108;2023-02-19T02:31:53;10.77;;;3.75;;
69912;SDS011;57198;52.082;5.108;2023-02-19T02:34:24;9.70;;;3.85;;
69912;SDS011;57198;52.082;5.108;2023-02-19T02:36:53;12.73;;;3.83;;
69912;SDS011;57198;52.082;5.108;2023-02-19T02:39:23;11.48;;;3.85;;
69912;SDS011;57198;52.082;5.108;2023-02-19T02:41:55;10.90;;;4.10;;
69912;SDS011;57198;52.082;5.108;2023-02-19T02:44:48;14.70;;;3.83;;
69912;SDS011;57198;52.082;5.108;2023-02-19T02:47:43;10.90;;;3.72;;
69912;SDS011;57198;52.082;5.108;2023-02-19T02:50:16;15.98;;;4.80;;
69912;SDS011;57198;52.082;5.108;2023-02-19T02:52:45;12.15;;;4.03;;
69912;SDS011;57198;52.082;5.108;2023-02-19T02:55:34;11.73;;;4.28;;
69912;SDS011;57198;52.082;5.108;2023-02-19T02:58:03;12.77;;;4.28;;
69912;SDS011;57198;52.082;5.108;2023-02-19T03:00:31;12.80;;;4.75;;
69912;SDS011;57198;52.082;5.108;2023-02-19T03:03:19;11.75;;;4.25;;
69912;SDS011;57198;52.082;5.108;2023-02-19T03:05:48;10.95;;;3.88;;
69912;SDS011;57198;52.082;5.108;2023-02-19T03:10:52;13.73;;;4.05;;
69912;SDS011;57198;52.082;5.108;2023-02-19T03:16:07;13.20;;;4.83;;
69912;SDS011;57198;52.082;5.108;2023-02-19T03:18:54;10.52;;;4.18;;
69912;SDS011;57198;52.082;5.108;2023-02-19T03:22:00;11.27;;;3.55;;
69912;SDS011;57198;52.082;5.108;2023-02-19T03:24:37;7.88;;;3.60;;
69912;SDS011;57198;52.082;5.108;2023-02-19T03:27:25;9.30;;;4.10;;
69912;SDS011;57198;52.082;5.108;2023-02-19T03:29:55;10.93;;;4.27;;
69912;SDS011;57198;52.082;5.108;2023-02-19T03:32:24;10.77;;;3.58;;
69912;SDS011;57198;52.082;5.108;2023-02-19T03:34:59;8.35;;;3.35;;
69912;SDS011;57198;52.082;5.108;2023-02-19T03:37:29;10.10;;;3.75;;
69912;SDS011;57198;52.082;5.108;2023-02-19T03:39:59;12.38;;;4.63;;
69912;SDS011;57198;52.082;5.108;2023-02-19T03:42:40;7.63;;;3.83;;
69912;SDS011;57198;52.082;5.108;2023-02-19T03:47:44;12.43;;;3.83;;
69912;SDS011;57198;52.082;5.108;2023-02-19T03:55:38;12.15;;;4.07;;
69912;SDS011;57198;52.082;5.108;2023-02-19T04:03:37;12.45;;;3.72;;
69912;SDS011;57198;52.082;5.108;2023-02-19T04:06:10;10.25;;;3.55;;
69912;SDS011;57198;52.082;5.108;2023-02-19T04:08:39;12.00;;;4.13;;
69912;SDS011;57198;52.082;5.108;2023-02-19T04:11:09;12.77;;;4.95;;
69912;SDS011;57198;52.082;5.108;2023-02-19T04:13:43;9.60;;;4.03;;
69912;SDS011;57198;52.082;5.108;2023-02-19T04:16:14;11.85;;;4.10;;
69912;SDS011;57198;52.082;5.108;2023-02-19T04:18:44;12.68;;;3.95;;
69912;SDS011;57198;52.082;5.108;2023-02-19T04:21:13;14.27;;;4.43;;
69912;SDS011;57198;52.082;5.108;2023-02-19T04:23:42;7.32;;;3.63;;
69912;SDS011;57198;52.082;5.108;2023-02-19T04:26:10;11.50;;;3.60;;
69912;SDS011;57198;52.082;5.108;2023-02-19T04:28:38;15.07;;;4.22;;
69912;SDS011;57198;52.082;5.108;2023-02-19T04:31:05;12.48;;;4.63;;
69912;SDS011;57198;52.082;5.108;2023-02-19T04:33:33;12.00;;;4.55;;
69912;SDS011;57198;52.082;5.108;2023-02-19T04:36:00;12.57;;;4.22;;
69912;SDS011;57198;52.082;5.108;2023-02-19T04:38:28;12.90;;;4.30;;
69912;SDS011;57198;52.082;5.108;2023-02-19T04:40:55;12.85;;;4.22;;
69912;SDS011;57198;52.082;5.108;2023-02-19T04:43:23;11.43;;;4.10;;
69912;SDS011;57198;52.082;5.108;2023-02-19T04:45:50;12.57;;;4.30;;
69912;SDS011;57198;52.082;5.108;2023-02-19T04:48:17;7.47;;;3.55;;
69912;SDS011;57198;52.082;5.108;2023-02-19T04:50:45;11.55;;;4.88;;
69912;SDS011;57198;52.082;5.108;2023-02-19T04:53:12;15.23;;;3.47;;
69912;SDS011;57198;52.082;5.108;2023-02-19T04:55:39;14.43;;;3.80;;
69912;SDS011;57198;52.082;5.108;2023-02-19T04:58:06;8.03;;;3.60;;
69912;SDS011;57198;52.082;5.108;2023-02-19T05:00:34;12.18;;;3.00;;
69912;SDS011;57198;52.082;5.108;2023-02-19T05:03:01;14.10;;;3.92;;
69912;SDS011;57198;52.082;5.108;2023-02-19T05:05:28;15.45;;;4.03;;
69912;SDS011;57198;52.082;5.108;2023-02-19T05:07:56;12.40;;;3.15;;
69912;SDS011;57198;52.082;5.108;2023-02-19T05:10:23;11.60;;;3.03;;
69912;SDS011;57198;52.082;5.108;2023-02-19T05:12:50;10.27;;;3.88;;
69912;SDS011;57198;52.082;5.108;2023-02-19T05:15:17;10.30;;;3.40;;
69912;SDS011;57198;52.082;5.108;2023-02-19T05:17:45;12.23;;;3.03;;
69912;SDS011;57198;52.082;5.108;2023-02-19T05:20:12;10.57;;;3.50;;
69912;SDS011;57198;52.082;5.108;2023-02-19T05:22:40;10.18;;;2.83;;
69912;SDS011;57198;52.082;5.108;2023-02-19T05:25:07;12.05;;;3.45;;
69912;SDS011;57198;52.082;5.108;2023-02-19T05:27:34;12.50;;;3.78;;
69912;SDS011;57198;52.082;5.108;2023-02-19T05:30:02;10.60;;;3.50;;
69912;SDS011;57198;52.082;5.108;2023-02-19T05:32:29;9.07;;;3.85;;
69912;SDS011;57198;52.082;5.108;2023-02-19T05:34:56;13.15;;;4.60;;
69912;SDS011;57198;52.082;5.108;2023-02-19T05:37:23;10.27;;;3.50;;
69912;SDS011;57198;52.082;5.108;2023-02-19T05:39:51;10.43;;;3.42;;
69912;SDS011;57198;52.082;5.108;2023-02-19T05:42:18;10.93;;;3.40;;
69912;SDS011;57198;52.082;5.108;2023-02-19T05:44:45;11.48;;;4.13;;
69912;SDS011;57198;52.082;5.108;2023-02-19T05:47:13;12.40;;;3.75;;
69912;SDS011;57198;52.082;5.108;2023-02-19T05:49:40;11.20;;;3.65;;
69912;SDS011;57198;52.082;5.108;2023-02-19T05:52:07;10.18;;;4.20;;
69912;SDS011;57198;52.082;5.108;2023-02-19T05:54:34;11.25;;;4.32;;
69912;SDS011;57198;52.082;5.108;2023-02-19T05:57:02;12.20;;;4.47;;
69912;SDS011;57198;52.082;5.108;2023-02-19T05:59:29;12.23;;;4.05;;
69912;SDS011;57198;52.082;5.108;2023-02-19T06:01:56;10.55;;;3.63;;
69912;SDS011;57198;52.082;5.108;2023-02-19T06:04:24;15.18;;;5.72;;
69912;SDS011;57198;52.082;5.108;2023-02-19T06:06:51;13.73;;;3.88;;
69912;SDS011;57198;52.082;5.108;2023-02-19T06:09:18;10.02;;;4.13;;
69912;SDS011;57198;52.082;5.108;2023-02-19T06:11:46;11.57;;;4.45;;
69912;SDS011;57198;52.082;5.108;2023-02-19T06:14:13;13.75;;;4.18;;
69912;SDS011;57198;52.082;5.108;2023-02-19T06:16:40;7.20;;;3.70;;
69912;SDS011;57198;52.082;5.108;2023-02-19T06:19:08;14.20;;;4.43;;
69912;SDS011;57198;52.082;5.108;2023-02-19T06:21:35;9.43;;;4.07;;
69912;SDS011;57198;52.082;5.108;2023-02-19T06:24:03;6.45;;;3.70;;
69912;SDS011;57198;52.082;5.108;2023-02-19T06:26:31;10.30;;;3.80;;
69912;SDS011;57198;52.082;5.108;2023-02-19T06:28:58;11.25;;;4.40;;
69912;SDS011;57198;52.082;5.108;2023-02-19T06:31:26;8.15;;;3.72;;
69912;SDS011;57198;52.082;5.108;2023-02-19T06:33:53;8.27;;;4.30;;
69912;SDS011;57198;52.082;5.108;2023-02-19T06:36:21;8.02;;;4.00;;
69912;SDS011;57198;52.082;5.108;2023-02-19T06:38:49;12.90;;;4.70;;
69912;SDS011;57198;52.082;5.108;2023-02-19T06:41:16;14.40;;;4.68;;
69912;SDS011;57198;52.082;5.108;2023-02-19T06:43:44;16.45;;;4.28;;
69912;SDS011;57198;52.082;5.108;2023-02-19T06:46:12;12.63;;;5.15;;
69912;SDS011;57198;52.082;5.108;2023-02-19T06:48:41;11.18;;;5.15;;
69912;SDS011;57198;52.082;5.108;2023-02-19T06:51:12;10.52;;;4.15;;
69912;SDS011;57198;52.082;5.108;2023-02-19T06:53:40;12.88;;;4.30;;
69912;SDS011;57198;52.082;5.108;2023-02-19T06:56:20;11.82;;;4.70;;
69912;SDS011;57198;52.082;5.108;2023-02-19T06:58:48;9.43;;;4.80;;
69912;SDS011;57198;52.082;5.108;2023-02-19T07:01:15;10.40;;;4.70;;
69912;SDS011;57198;52.082;5.108;2023-02-19T07:03:43;9.98;;;4.43;;
69912;SDS011;57198;52.082;5.108;2023-02-19T07:06:10;9.88;;;4.03;;
69912;SDS011;57198;52.082;5.108;2023-02-19T07:08:37;11.40;;;4.10;;
69912;SDS011;57198;52.082;5.108;2023-02-19T07:11:05;13.35;;;4.47;;
69912;SDS011;57198;52.082;5.108;2023-02-19T07:13:32;16.35;;;4.53;;
69912;SDS011;57198;52.082;5.108;2023-02-19T07:16:00;8.77;;;3.58;;
69912;SDS011;57198;52.082;5.108;2023-02-19T07:18:28;13.15;;;5.28;;
69912;SDS011;57198;52.082;5.108;2023-02-19T07:21:06;10.02;;;3.85;;
69912;SDS011;57198;52.082;5.108;2023-02-19T07:23:34;9.32;;;4.60;;
69912;SDS011;57198;52.082;5.108;2023-02-19T07:26:01;15.07;;;4.38;;
69912;SDS011;57198;52.082;5.108;2023-02-19T07:28:29;12.60;;;4.43;;
69912;SDS011;57198;52.082;5.108;2023-02-19T07:31:00;12.38;;;3.92;;
69912;SDS011;57198;52.082;5.108;2023-02-19T07:33:28;11.38;;;4.22;;
69912;SDS011;57198;52.082;5.108;2023-02-19T07:35:55;14.18;;;4.32;;
69912;SDS011;57198;52.082;5.108;2023-02-19T07:38:23;9.13;;;5.10;;
69912;SDS011;57198;52.082;5.108;2023-02-19T07:43:18;11.35;;;4.25;;
69912;SDS011;57198;52.082;5.108;2023-02-19T07:45:45;10.75;;;4.25;;
69912;SDS011;57198;52.082;5.108;2023-02-19T07:48:13;19.70;;;5.75;;
69912;SDS011;57198;52.082;5.108;2023-02-19T07:50:40;14.50;;;5.40;;
69912;SDS011;57198;52.082;5.108;2023-02-19T07:53:07;13.07;;;4.78;;
69912;SDS011;57198;52.082;5.108;2023-02-19T07:55:35;12.32;;;4.53;;
69912;SDS011;57198;52.082;5.108;2023-02-19T07:58:02;16.23;;;5.65;;
69912;SDS011;57198;52.082;5.108;2023-02-19T08:00:31;13.60;;;4.68;;
69912;SDS011;57198;52.082;5.108;2023-02-19T08:02:58;13.50;;;4.50;;
69912;SDS011;57198;52.082;5.108;2023-02-19T08:05:26;9.10;;;4.53;;
69912;SDS011;57198;52.082;5.108;2023-02-19T08:07:53;8.75;;;4.90;;
69912;SDS011;57198;52.082;5.108;2023-02-19T08:10:21;9.00;;;4.38;;
69912;SDS011;57198;52.082;5.108;2023-02-19T08:13:11;6.93;;;5.15;;
69912;SDS011;57198;52.082;5.108;2023-02-19T08:15:54;8.15;;;4.68;;
69912;SDS011;57198;52.082;5.108;2023-02-19T08:18:40;10.18;;;4.78;;
69912;SDS011;57198;52.082;5.108;2023-02-19T08:21:07;6.45;;;3.95;;
69912;SDS011;57198;52.082;5.108;2023-02-19T08:23:35;7.10;;;4.28;;
69912;SDS011;57198;52.082;5.108;2023-02-19T08:26:03;9.95;;;4.43;;
69912;SDS011;57198;52.082;5.108;2023-02-19T08:28:30;9.50;;;4.80;;
69912;SDS011;57198;52.082;5.108;2023-02-19T08:31:02;13.35;;;5.32;;
69912;SDS011;57198;52.082;5.108;2023-02-19T08:33:29;10.23;;;5.22;;
69912;SDS011;57198;52.082;5.108;2023-02-19T08:36:00;11.90;;;5.20;;
69912;SDS011;57198;52.082;5.108;2023-02-19T08:38:30;12.68;;;6.00;;
69912;SDS011;57198;52.082;5.108;2023-02-19T08:40:57;11.55;;;5.03;;
69912;SDS011;57198;52.082;5.108;2023-02-19T08:43:25;14.77;;;5.57;;
69912;SDS011;57198;52.082;5.108;2023-02-19T08:45:52;13.40;;;6.00;;
69912;SDS011;57198;52.082;5.108;2023-02-19T08:48:20;15.93;;;5.00;;
69912;SDS011;57198;52.082;5.108;2023-02-19T08:51:21;13.05;;;5.60;;
69912;SDS011;57198;52.082;5.108;2023-02-19T08:53:42;11.43;;;4.60;;
69912;SDS011;57198;52.082;5.108;2023-02-19T08:56:10;14.32;;;4.82;;
69912;SDS011;57198;52.082;5.108;2023-02-19T08:58:38;14.13;;;4.85;;
69912;SDS011;57198;52.082;5.108;2023-02-19T09:01:09;15.57;;;5.35;;
69912;SDS011;57198;52.082;5.108;2023-02-19T09:03:37;11.32;;;4.90;;
69912;SDS011;57198;52.082;5.108;2023-02-19T09:06:04;14.17;;;4.60;;
69912;SDS011;57198;52.082;5.108;2023-02-19T09:08:32;12.52;;;4.70;;
69912;SDS011;57198;52.082;5.108;2023-02-19T09:11:00;11.27;;;5.82;;
69912;SDS011;57198;52.082;5.108;2023-02-19T09:13:27;12.20;;;5.13;;
69912;SDS011;57198;52.082;5.108;2023-02-19T09:15:55;11.20;;;4.80;;
69912;SDS011;57198;52.082;5.108;2023-02-19T09:18:23;16.02;;;4.82;;
69912;SDS011;57198;52.082;5.108;2023-02-19T09:20:50;15.80;;;5.07;;
69912;SDS011;57198;52.082;5.108;2023-02-19T09:23:18;13.48;;;4.72;;
69912;SDS011;57198;52.082;5.108;2023-02-19T09:25:46;12.32;;;4.78;;
69912;SDS011;57198;52.082;5.108;2023-02-19T09:28:13;10.60;;;4.80;;
69912;SDS011;57198;52.082;5.108;2023-02-19T09:30:42;16.53;;;5.17;;
69912;SDS011;57198;52.082;5.108;2023-02-19T09:33:09;14.52;;;4.70;;
69912;SDS011;57198;52.082;5.108;2023-02-19T09:35:39;10.80;;;4.68;;
69912;SDS011;57198;52.082;5.108;2023-02-19T09:38:07;10.45;;;4.88;;
69912;SDS011;57198;52.082;5.108;2023-02-19T09:40:36;11.10;;;4.10;;
69912;SDS011;57198;52.082;5.108;2023-02-19T09:43:08;9.13;;;4.47;;
69912;SDS011;57198;52.082;5.108;2023-02-19T09:45:38;10.52;;;5.25;;
69912;SDS011;57198;52.082;5.108;2023-02-19T09:48:06;13.25;;;4.57;;
69912;SDS011;57198;52.082;5.108;2023-02-19T09:50:36;14.27;;;4.90;;
69912;SDS011;57198;52.082;5.108;2023-02-19T09:53:05;14.13;;;4.05;;
69912;SDS011;57198;52.082;5.108;2023-02-19T09:55:38;10.77;;;4.38;;
69912;SDS011;57198;52.082;5.108;2023-02-19T10:00:53;16.27;;;3.83;;
69912;SDS011;57198;52.082;5.108;2023-02-19T10:03:27;11.20;;;3.80;;
69912;SDS011;57198;52.082;5.108;2023-02-19T10:06:01;10.48;;;4.63;;
69912;SDS011;57198;52.082;5.108;2023-02-19T10:08:31;13.60;;;4.30;;
69912;SDS011;57198;52.082;5.108;2023-02-19T10:11:00;13.23;;;4.18;;
69912;SDS011;57198;52.082;5.108;2023-02-19T10:13:34;9.70;;;3.78;;
69912;SDS011;57198;52.082;5.108;2023-02-19T10:16:03;13.75;;;4.35;;
69912;SDS011;57198;52.082;5.108;2023-02-19T10:18:40;12.20;;;4.32;;
69912;SDS011;57198;52.082;5.108;2023-02-19T10:21:16;10.70;;;4.80;;
69912;SDS011;57198;52.082;5.108;2023-02-19T10:23:46;16.23;;;4.18;;
69912;SDS011;57198;52.082;5.108;2023-02-19T10:26:15;14.13;;;3.85;;
69912;SDS011;57198;52.082;5.108;2023-02-19T10:28:42;11.90;;;4.10;;
69912;SDS011;57198;52.082;5.108;2023-02-19T10:31:14;11.82;;;4.88;;
69912;SDS011;57198;52.082;5.108;2023-02-19T10:33:49;10.50;;;4.13;;
69912;SDS011;57198;52.082;5.108;2023-02-19T10:36:27;15.00;;;4.43;;
69912;SDS011;57198;52.082;5.108;2023-02-19T10:38:57;11.82;;;3.95;;
69912;SDS011;57198;52.082;5.108;2023-02-19T10:41:25;8.18;;;3.53;;
69912;SDS011;57198;52.082;5.108;2023-02-19T10:46:27;7.32;;;3.67;;
69912;SDS011;57198;52.082;5.108;2023-02-19T10:48:57;9.75;;;4.00;;
69912;SDS011;57198;52.082;5.108;2023-02-19T10:51:43;15.57;;;4.15;;
69912;SDS011;57198;52.082;5.108;2023-02-19T10:56:41;8.98;;;3.58;;
69912;SDS011;57198;52.082;5.108;2023-02-19T11:04:22;7.13;;;2.70;;
69912;SDS011;57198;52.082;5.108;2023-02-19T11:06:49;5.80;;;3.00;;
69912;SDS011;57198;52.082;5.108;2023-02-19T11:09:21;6.30;;;2.92;;
69912;SDS011;57198;52.082;5.108;2023-02-19T11:11:50;4.60;;;2.65;;
69912;SDS011;57198;52.082;5.108;2023-02-19T11:14:19;5.00;;;2.10;;
69912;SDS011;57198;52.082;5.108;2023-02-19T11:16:50;5.38;;;2.53;;
69912;SDS011;57198;52.082;5.108;2023-02-19T11:21:48;4.10;;;2.38;;
69912;SDS011;57198;52.082;5.108;2023-02-19T11:24:25;5.22;;;2.53;;
69912;SDS011;57198;52.082;5.108;2023-02-19T11:26:54;5.10;;;2.53;;
69912;SDS011;57198;52.082;5.108;2023-02-19T11:29:22;5.47;;;3.00;;
69912;SDS011;57198;52.082;5.108;2023-02-19T11:31:54;3.45;;;3.15;;
69912;SDS011;57198;52.082;5.108;2023-02-19T11:34:24;3.03;;;2.60;;
69912;SDS011;57198;52.082;5.108;2023-02-19T11:37:08;4.20;;;3.10;;
69912;SDS011;57198;52.082;5.108;2023-02-19T11:39:36;3.80;;;3.40;;
69912;SDS011;57198;52.082;5.108;2023-02-19T11:47:42;4.00;;;2.60;;
69912;SDS011;57198;52.082;5.108;2023-02-19T11:50:35;2.45;;;2.35;;
69912;SDS011;57198;52.082;5.108;2023-02-19T12:01:01;2.92;;;2.72;;
69912;SDS011;57198;52.082;5.108;2023-02-19T12:11:28;3.20;;;2.90;;
69912;SDS011;57198;52.082;5.108;2023-02-19T12:30:00;3.20;;;2.80;;
69912;SDS011;57198;52.082;5.108;2023-02-19T12:32:32;2.58;;;2.38;;
69912;SDS011;57198;52.082;5.108;2023-02-19T12:43:04;9.97;;;8.00;;
69912;SDS011;57198;52.082;5.108;2023-02-19T12:45:46;4.25;;;3.85;;
69912;SDS011;57198;52.082;5.108;2023-02-19T12:48:35;4.65;;;4.05;;
69912;SDS011;57198;52.082;5.108;2023-02-19T12:51:13;5.25;;;3.50;;
69912;SDS011;57198;52.082;5.108;2023-02-19T12:53:46;4.57;;;4.18;;
69912;SDS011;57198;52.082;5.108;2023-02-19T12:56:32;5.07;;;4.03;;
69912;SDS011;57198;52.082;5.108;2023-02-19T12:59:03;4.82;;;4.40;;
69912;SDS011;57198;52.082;5.108;2023-02-19T13:01:32;4.05;;;3.65;;
69912;SDS011;57198;52.082;5.108;2023-02-19T13:04:44;4.45;;;3.90;;
69912;SDS011;57198;52.082;5.108;2023-02-19T13:07:14;4.43;;;3.35;;
69912;SDS011;57198;52.082;5.108;2023-02-19T13:09:46;3.90;;;3.43;;
69912;SDS011;57198;52.082;5.108;2023-02-19T13:12:34;4.53;;;4.15;;
69912;SDS011;57198;52.082;5.108;2023-02-19T13:15:03;4.70;;;3.97;;
69912;SDS011;57198;52.082;5.108;2023-02-19T13:17:39;3.72;;;3.42;;
69912;SDS011;57198;52.082;5.108;2023-02-19T13:23:01;3.10;;;2.90;;
69912;SDS011;57198;52.082;5.108;2023-02-19T13:25:54;4.53;;;3.45;;
69912;SDS011;57198;52.082;5.108;2023-02-19T13:31:15;3.97;;;3.67;;
69912;SDS011;57198;52.082;5.108;2023-02-19T13:36:22;4.13;;;3.50;;
69912;SDS011;57198;52.082;5.108;2023-02-19T13:38:51;4.15;;;3.75;;
69912;SDS011;57198;52.082;5.108;2023-02-19T13:41:20;4.72;;;4.22;;
69912;SDS011;57198;52.082;5.108;2023-02-19T13:43:53;4.47;;;3.92;;
69912;SDS011;57198;52.082;5.108;2023-02-19T13:46:21;4.68;;;4.25;;
69912;SDS011;57198;52.082;5.108;2023-02-19T13:48:49;4.47;;;3.47;;
69912;SDS011;57198;52.082;5.108;2023-02-19T13:51:37;4.57;;;4.18;;
69912;SDS011;57198;52.082;5.108;2023-02-19T13:54:12;4.35;;;3.75;;
69912;SDS011;57198;52.082;5.108;2023-02-19T13:56:39;4.13;;;3.72;;
69912;SDS011;57198;52.082;5.108;2023-02-19T14:04:22;2.95;;;2.17;;
69912;SDS011;57198;52.082;5.108;2023-02-19T14:20:01;2.55;;;2.30;;
69912;SDS011;57198;52.082;5.108;2023-02-19T14:28:05;2.40;;;2.20;;
69912;SDS011;57198;52.082;5.108;2023-02-19T14:30:44;2.10;;;1.90;;
69912;SDS011;57198;52.082;5.108;2023-02-19T14:33:14;2.20;;;2.10;;
69912;SDS011;57198;52.082;5.108;2023-02-19T14:35:43;1.75;;;1.65;;
69912;SDS011;57198;52.082;5.108;2023-02-19T14:38:31;2.53;;;1.67;;
69912;SDS011;57198;52.082;5.108;2023-02-19T14:40:59;2.10;;;2.00;;
69912;SDS011;57198;52.082;5.108;2023-02-19T14:43:26;2.35;;;1.67;;
69912;SDS011;57198;52.082;5.108;2023-02-19T14:48:51;1.77;;;1.67;;
69912;SDS011;57198;52.082;5.108;2023-02-19T14:53:46;3.47;;;2.20;;
69912;SDS011;57198;52.082;5.108;2023-02-19T14:56:21;3.63;;;1.67;;
69912;SDS011;57198;52.082;5.108;2023-02-19T14:59:20;4.50;;;2.55;;
69912;SDS011;57198;52.082;5.108;2023-02-19T15:02:01;2.38;;;1.95;;
69912;SDS011;57198;52.082;5.108;2023-02-19T15:04:33;2.60;;;2.50;;
69912;SDS011;57198;52.082;5.108;2023-02-19T15:07:02;5.70;;;4.50;;
69912;SDS011;57198;52.082;5.108;2023-02-19T15:09:32;3.10;;;2.80;;
69912;SDS011;57198;52.082;5.108;2023-02-19T15:12:02;3.17;;;2.97;;
69912;SDS011;57198;52.082;5.108;2023-02-19T15:14:30;5.10;;;4.03;;
69912;SDS011;57198;52.082;5.108;2023-02-19T15:17:00;2.15;;;2.05;;
69912;SDS011;57198;52.082;5.108;2023-02-19T15:19:28;2.37;;;2.27;;
69912;SDS011;57198;52.082;5.108;2023-02-19T15:21:58;3.25;;;2.25;;
69912;SDS011;57198;52.082;5.108;2023-02-19T15:24:27;3.70;;;3.40;;
69912;SDS011;57198;52.082;5.108;2023-02-19T15:26:54;2.03;;;1.67;;
69912;SDS011;57198;52.082;5.108;2023-02-19T15:29:23;3.17;;;2.80;;
69912;SDS011;57198;52.082;5.108;2023-02-19T15:31:55;3.13;;;2.87;;
69912;SDS011;57198;52.082;5.108;2023-02-19T15:34:23;3.38;;;3.08;;
69912;SDS011;57198;52.082;5.108;2023-02-19T15:36:53;3.10;;;2.80;;
69912;SDS011;57198;52.082;5.108;2023-02-19T15:39:22;2.83;;;2.63;;
69912;SDS011;57198;52.082;5.108;2023-02-19T15:41:54;7.57;;;6.78;;
69912;SDS011;57198;52.082;5.108;2023-02-19T15:46:52;3.75;;;3.33;;
69912;SDS011;57198;52.082;5.108;2023-02-19T15:49:21;4.00;;;3.80;;
69912;SDS011;57198;52.082;5.108;2023-02-19T15:51:51;2.00;;;1.90;;
69912;SDS011;57198;52.082;5.108;2023-02-19T15:56:52;2.90;;;2.70;;
69912;SDS011;57198;52.082;5.108;2023-02-19T15:59:41;2.80;;;2.60;;
69912;SDS011;57198;52.082;5.108;2023-02-19T16:02:11;3.13;;;2.90;;
69912;SDS011;57198;52.082;5.108;2023-02-19T16:04:39;3.50;;;3.17;;
69912;SDS011;57198;52.082;5.108;2023-02-19T16:07:26;3.15;;;2.88;;
69912;SDS011;57198;52.082;5.108;2023-02-19T16:12:58;4.10;;;3.38;;
69912;SDS011;57198;52.082;5.108;2023-02-19T16:15:26;3.45;;;3.15;;
69912;SDS011;57198;52.082;5.108;2023-02-19T16:17:54;4.40;;;3.58;;
69912;SDS011;57198;52.082;5.108;2023-02-19T16:20:29;3.47;;;3.28;;
69912;SDS011;57198;52.082;5.108;2023-02-19T16:23:10;3.55;;;3.35;;
69912;SDS011;57198;52.082;5.108;2023-02-19T16:25:39;3.85;;;3.55;;
69912;SDS011;57198;52.082;5.108;2023-02-19T16:30:36;3.15;;;2.85;;
69912;SDS011;57198;52.082;5.108;2023-02-19T16:33:20;2.55;;;2.35;;
69912;SDS011;57198;52.082;5.108;2023-02-19T16:35:48;2.20;;;2.00;;
69912;SDS011;57198;52.082;5.108;2023-02-19T16:38:18;2.20;;;2.10;;
69912;SDS011;57198;52.082;5.108;2023-02-19T16:45:48;2.08;;;1.98;;
69912;SDS011;57198;52.082;5.108;2023-02-19T16:48:15;1.70;;;1.60;;
69912;SDS011;57198;52.082;5.108;2023-02-19T16:50:44;1.65;;;1.65;;
69912;SDS011;57198;52.082;5.108;2023-02-19T16:53:18;2.60;;;2.50;;
69912;SDS011;57198;52.082;5.108;2023-02-19T16:55:46;2.20;;;2.10;;
69912;SDS011;57198;52.082;5.108;2023-02-19T16:58:13;2.47;;;2.38;;
69912;SDS011;57198;52.082;5.108;2023-02-19T17:00:40;2.53;;;2.42;;
69912;SDS011;57198;52.082;5.108;2023-02-19T17:03:10;2.97;;;1.90;;
69912;SDS011;57198;52.082;5.108;2023-02-19T17:05:38;1.92;;;1.83;;
69912;SDS011;57198;52.082;5.108;2023-02-19T17:10:52;2.15;;;1.95;;
69912;SDS011;57198;52.082;5.108;2023-02-19T17:13:21;1.95;;;1.83;;
69912;SDS011;57198;52.082;5.108;2023-02-19T17:15:48;2.47;;;2.38;;
69912;SDS011;57198;52.082;5.108;2023-02-19T17:18:16;4.75;;;4.38;;
69912;SDS011;57198;52.082;5.108;2023-02-19T17:20:44;2.20;;;2.10;;
69912;SDS011;57198;52.082;5.108;2023-02-19T17:23:14;2.22;;;2.13;;
69912;SDS011;57198;52.082;5.108;2023-02-19T17:25:41;2.72;;;2.42;;
69912;SDS011;57198;52.082;5.108;2023-02-19T17:28:09;2.35;;;2.25;;
69912;SDS011;57198;52.082;5.108;2023-02-19T17:30:36;2.13;;;2.00;;